createdAt,value
2018-03-23T00:00:17.605Z,1.80
2018-03-23T00:02:45.807Z,1.80
2018-03-23T00:05:14.117Z,1.90
2018-03-23T00:07:43.196Z,1.90
2018-03-23T00:10:11.405Z,1.90
2018-03-23T00:12:39.658Z,1.90
2018-03-23T00:15:08.633Z,2.00
2018-03-23T00:17:36.843Z,1.90
2018-03-23T00:20:05.082Z,1.90
2018-03-23T00:22:33.390Z,1.90
2018-03-23T00:25:02.371Z,1.90
2018-03-23T00:27:30.861Z,1.90
2018-03-23T00:29:59.132Z,2.00
2018-03-23T00:32:27.323Z,1.90
2018-03-23T00:34:56.318Z,2.00
2018-03-23T00:37:24.523Z,2.00
2018-03-23T00:39:53.820Z,2.00
2018-03-23T00:42:22.129Z,2.00
2018-03-23T00:44:50.419Z,2.10
2018-03-23T00:47:18.806Z,2.10
2018-03-23T00:49:47.097Z,2.10
2018-03-23T00:52:16.066Z,2.00
2018-03-23T00:54:44.416Z,2.00
2018-03-23T00:57:12.696Z,2.00
2018-03-23T00:59:40.871Z,2.00
2018-03-23T01:02:09.107Z,2.00
2018-03-23T01:04:37.601Z,2.00
2018-03-23T01:07:05.875Z,2.00
2018-03-23T01:09:34.235Z,2.00
2018-03-23T01:12:02.514Z,2.00
2018-03-23T01:14:30.769Z,2.00
2018-03-23T01:16:58.941Z,2.10
2018-03-23T01:19:28.033Z,2.10
2018-03-23T01:21:56.232Z,2.10
2018-03-23T01:24:25.194Z,2.00
2018-03-23T01:26:53.437Z,2.00
2018-03-23T01:29:21.644Z,2.10
2018-03-23T01:31:49.885Z,2.10
2018-03-23T01:34:18.196Z,2.10
2018-03-23T01:36:46.701Z,2.10
2018-03-23T01:39:15.705Z,2.10
2018-03-23T01:41:45.235Z,2.10
2018-03-23T01:44:13.450Z,2.10
2018-03-23T01:46:41.666Z,2.10
2018-03-23T01:49:09.873Z,2.10
2018-03-23T01:51:38.125Z,2.10
2018-03-23T01:54:06.442Z,2.10
2018-03-23T01:56:34.771Z,2.10
2018-03-23T01:59:02.964Z,2.10
2018-03-23T02:01:31.245Z,2.00
2018-03-23T02:03:59.509Z,2.00
2018-03-23T02:06:27.718Z,2.00
2018-03-23T02:08:56.203Z,2.10
2018-03-23T02:11:24.529Z,2.10
2018-03-23T02:13:52.744Z,2.20
2018-03-23T02:16:20.948Z,2.10
2018-03-23T02:18:50.039Z,2.10
2018-03-23T02:21:18.303Z,2.10
2018-03-23T02:23:46.501Z,2.10
2018-03-23T02:26:15.639Z,2.10
2018-03-23T02:28:44.639Z,2.00
2018-03-23T02:31:12.914Z,2.00
2018-03-23T02:33:41.121Z,2.00
2018-03-23T02:36:09.327Z,2.00
2018-03-23T02:38:38.301Z,2.10
2018-03-23T02:41:06.590Z,2.10
2018-03-23T02:43:34.802Z,2.00
2018-03-23T02:46:03.047Z,2.00
2018-03-23T02:48:32.038Z,2.00
2018-03-23T02:51:01.134Z,2.00
2018-03-23T02:53:30.124Z,2.00
2018-03-23T02:55:59.184Z,2.00
2018-03-23T02:58:27.564Z,2.00
2018-03-23T03:00:55.789Z,2.00
2018-03-23T03:03:24.074Z,2.10
2018-03-23T03:05:52.352Z,2.10
2018-03-23T03:08:20.589Z,2.10
2018-03-23T03:10:48.820Z,2.10
2018-03-23T03:13:17.006Z,2.00
2018-03-23T03:15:45.213Z,2.20
2018-03-23T03:18:13.538Z,2.20
2018-03-23T03:20:42.488Z,2.20
2018-03-23T03:23:11.839Z,2.20
2018-03-23T03:25:40.064Z,2.10
2018-03-23T03:28:08.291Z,2.10
2018-03-23T03:30:36.620Z,2.10
2018-03-23T03:33:04.918Z,2.10
2018-03-23T03:35:33.156Z,2.00
2018-03-23T03:38:02.123Z,2.10
2018-03-23T03:40:30.387Z,2.10
2018-03-23T03:42:58.581Z,2.10
2018-03-23T03:45:26.881Z,2.20
2018-03-23T03:47:55.876Z,2.10
2018-03-23T03:50:24.084Z,2.10
2018-03-23T03:52:52.304Z,2.10
2018-03-23T03:55:20.550Z,2.00
2018-03-23T03:57:48.851Z,2.00
2018-03-23T04:00:17.055Z,2.00
2018-03-23T04:02:45.341Z,2.10
2018-03-23T04:05:14.304Z,2.10
2018-03-23T04:07:43.329Z,2.10
2018-03-23T04:10:12.354Z,2.00
2018-03-23T04:12:40.562Z,2.00
2018-03-23T04:15:08.767Z,2.10
2018-03-23T04:17:37.828Z,2.00
2018-03-23T04:20:06.031Z,2.00
2018-03-23T04:22:34.236Z,2.00
2018-03-23T04:25:02.478Z,2.10
2018-03-23T04:27:30.672Z,2.20
2018-03-23T04:29:59.674Z,2.20
2018-03-23T04:32:28.663Z,2.30
2018-03-23T04:34:57.644Z,2.20
2018-03-23T04:37:25.917Z,2.20
2018-03-23T04:39:54.820Z,2.10
2018-03-23T04:42:22.970Z,2.20
2018-03-23T04:44:51.216Z,2.10
2018-03-23T04:47:19.465Z,2.10
2018-03-23T04:49:47.757Z,2.10
2018-03-23T04:52:16.026Z,2.20
2018-03-23T04:54:44.305Z,2.10
2018-03-23T04:57:12.548Z,2.10
2018-03-23T04:59:41.510Z,2.10
2018-03-23T05:02:09.888Z,2.10
2018-03-23T05:04:38.072Z,2.10
2018-03-23T05:07:06.360Z,2.00
2018-03-23T05:09:35.380Z,2.10
2018-03-23T05:12:04.380Z,2.10
2018-03-23T05:14:32.585Z,2.10
2018-03-23T05:17:02.062Z,2.10
2018-03-23T05:19:30.312Z,2.10
2018-03-23T05:21:59.381Z,2.10
2018-03-23T05:24:27.626Z,2.10
2018-03-23T05:26:55.933Z,2.20
2018-03-23T05:29:24.156Z,2.30
2018-03-23T05:31:52.791Z,2.20
2018-03-23T05:34:21.975Z,2.20
2018-03-23T05:36:51.278Z,2.20
2018-03-23T05:39:19.717Z,2.10
2018-03-23T05:41:47.992Z,2.10
2018-03-23T05:44:16.317Z,2.10
2018-03-23T05:46:44.670Z,2.10
2018-03-23T05:49:12.960Z,2.10
2018-03-23T05:51:41.217Z,2.20
2018-03-23T05:54:09.473Z,2.10
2018-03-23T05:56:37.670Z,2.10
2018-03-23T05:59:05.878Z,2.20
2018-03-23T06:01:34.533Z,2.20
2018-03-23T06:04:04.555Z,2.30
2018-03-23T06:06:33.020Z,2.30
2018-03-23T06:09:02.216Z,2.30
2018-03-23T06:11:30.482Z,2.30
2018-03-23T06:13:58.723Z,2.30
2018-03-23T06:16:27.005Z,2.30
2018-03-23T06:18:55.309Z,2.30
2018-03-23T06:21:23.511Z,2.30
2018-03-23T06:23:52.617Z,2.30
2018-03-23T06:26:20.854Z,2.30
2018-03-23T06:28:49.837Z,2.40
2018-03-23T06:31:18.860Z,2.40
2018-03-23T06:33:47.057Z,2.40
2018-03-23T06:36:15.305Z,2.50
2018-03-23T06:38:43.704Z,2.50
2018-03-23T06:41:11.898Z,2.50
2018-03-23T06:43:40.285Z,2.40
2018-03-23T06:46:09.717Z,2.50
2018-03-23T06:48:38.700Z,2.60
2018-03-23T06:51:06.958Z,2.60
2018-03-23T06:53:36.512Z,2.70
2018-03-23T06:56:04.710Z,2.60
2018-03-23T06:58:32.948Z,2.70
2018-03-23T07:01:01.244Z,2.60
2018-03-23T07:03:29.489Z,2.50
2018-03-23T07:05:58.490Z,2.50
2018-03-23T07:08:27.552Z,2.50
2018-03-23T07:10:55.817Z,2.50
2018-03-23T07:13:24.019Z,2.50
2018-03-23T07:15:52.254Z,2.60
2018-03-23T07:18:20.503Z,2.60
2018-03-23T07:20:48.708Z,2.60
2018-03-23T07:23:17.132Z,2.70
2018-03-23T07:25:45.334Z,2.80
2018-03-23T07:28:13.527Z,2.80
2018-03-23T07:30:41.814Z,2.90
2018-03-23T07:33:10.106Z,3.00
2018-03-23T07:35:38.364Z,3.00
2018-03-23T07:38:06.634Z,3.10
2018-03-23T07:40:35.753Z,3.10
2018-03-23T07:43:04.723Z,3.10
2018-03-23T07:45:32.961Z,3.10
2018-03-23T07:48:01.161Z,3.20
2018-03-23T07:50:30.140Z,3.20
2018-03-23T07:53:00.424Z,3.30
2018-03-23T07:55:29.977Z,3.20
2018-03-23T07:57:58.282Z,3.30
2018-03-23T08:00:26.504Z,3.30
2018-03-23T08:02:54.837Z,3.40
2018-03-23T08:05:23.081Z,3.30
2018-03-23T08:07:52.094Z,3.40
2018-03-23T08:10:20.393Z,3.40
2018-03-23T08:12:48.637Z,3.40
2018-03-23T08:15:18.848Z,3.40
2018-03-23T08:17:47.175Z,3.40
2018-03-23T08:20:15.425Z,3.50
2018-03-23T08:22:43.766Z,3.50
2018-03-23T08:25:12.770Z,3.70
2018-03-23T08:27:41.865Z,3.70
2018-03-23T08:30:10.861Z,3.90
2018-03-23T08:32:39.830Z,3.80
2018-03-23T08:35:08.117Z,3.80
2018-03-23T08:37:36.380Z,3.80
2018-03-23T08:40:04.609Z,3.80
2018-03-23T08:42:32.834Z,3.70
2018-03-23T08:45:01.084Z,3.80
2018-03-23T08:47:29.433Z,3.70
2018-03-23T08:49:58.018Z,3.80
2018-03-23T08:52:26.266Z,3.80
2018-03-23T08:54:55.255Z,3.70
2018-03-23T08:57:23.448Z,3.70
2018-03-23T08:59:51.720Z,3.80
2018-03-23T09:02:20.740Z,3.90
2018-03-23T09:04:48.973Z,3.90
2018-03-23T09:07:18.018Z,3.80
2018-03-23T09:09:46.231Z,3.80
2018-03-23T09:12:14.452Z,3.70
2018-03-23T09:14:42.772Z,3.80
2018-03-23T09:17:10.967Z,3.80
2018-03-23T09:19:39.980Z,3.90
2018-03-23T09:22:09.675Z,3.90
2018-03-23T09:24:38.645Z,4.00
2018-03-23T09:27:06.849Z,3.90
2018-03-23T09:32:10.434Z,4.10
2018-03-23T09:34:38.703Z,4.10
2018-03-23T09:37:06.953Z,4.10
2018-03-23T09:39:35.185Z,4.00
2018-03-23T09:42:06.651Z,4.10
2018-03-23T09:44:35.631Z,4.20
2018-03-23T09:47:04.597Z,4.20
2018-03-23T09:49:32.843Z,4.20
2018-03-23T09:52:01.045Z,4.30
2018-03-23T09:54:29.247Z,4.40
2018-03-23T09:56:57.782Z,4.40
2018-03-23T09:59:27.235Z,4.40
2018-03-23T10:01:55.557Z,4.40
2018-03-23T10:04:23.832Z,4.50
2018-03-23T10:06:52.032Z,4.50
2018-03-23T10:09:20.309Z,4.50
2018-03-23T10:11:48.593Z,4.60
2018-03-23T10:14:16.879Z,4.50
2018-03-23T10:16:45.164Z,4.50
2018-03-23T10:19:13.389Z,4.40
2018-03-23T10:21:41.592Z,4.40
2018-03-23T10:24:09.796Z,4.40
2018-03-23T10:26:38.817Z,4.50
2018-03-23T10:29:07.073Z,4.40
2018-03-23T10:31:35.265Z,4.60
2018-03-23T10:34:03.516Z,4.70
2018-03-23T10:36:31.876Z,4.80
2018-03-23T10:39:00.236Z,4.70
2018-03-23T10:41:28.509Z,4.90
2018-03-23T10:43:58.397Z,4.90
2018-03-23T10:46:26.669Z,4.90
2018-03-23T10:48:54.938Z,5.10
2018-03-23T10:51:23.161Z,4.90
2018-03-23T10:53:51.392Z,5.00
2018-03-23T10:56:19.662Z,5.00
2018-03-23T10:58:48.747Z,5.30
2018-03-23T11:01:23.434Z,5.50
2018-03-23T11:03:51.863Z,5.50
2018-03-23T11:06:20.073Z,5.60
2018-03-23T11:08:48.325Z,5.70
2018-03-23T11:11:16.590Z,5.70
2018-03-23T11:13:44.894Z,5.80
2018-03-23T11:16:13.277Z,5.80
2018-03-23T11:18:41.564Z,6.00
2018-03-23T11:21:09.798Z,6.10
2018-03-23T11:23:38.029Z,6.20
2018-03-23T11:26:06.266Z,6.30
2018-03-23T11:28:34.520Z,6.50
2018-03-23T11:31:03.544Z,6.50
2018-03-23T11:33:31.748Z,6.50
2018-03-23T11:36:00.118Z,6.70
2018-03-23T11:38:28.356Z,6.70
2018-03-23T11:40:56.548Z,6.30
2018-03-23T11:43:24.856Z,6.10
2018-03-23T11:45:53.090Z,6.10
2018-03-23T11:48:21.292Z,6.20
2018-03-23T11:50:49.602Z,6.50
2018-03-23T11:53:17.860Z,6.30
2018-03-23T11:55:46.138Z,6.40
2018-03-23T11:58:14.353Z,6.50
2018-03-23T12:00:42.623Z,6.70
2018-03-23T12:03:14.080Z,6.80
2018-03-23T12:05:42.346Z,6.80
2018-03-23T12:08:11.149Z,6.90
2018-03-23T12:10:40.637Z,7.50
2018-03-23T12:13:09.652Z,8.00
2018-03-23T12:15:37.948Z,8.00
2018-03-23T12:18:06.177Z,8.20
2018-03-23T12:20:35.147Z,7.70
2018-03-23T12:23:03.413Z,7.70
2018-03-23T12:25:31.735Z,7.60
2018-03-23T12:28:00.724Z,7.30
2018-03-23T12:30:28.969Z,7.30
2018-03-23T12:32:57.184Z,7.40
2018-03-23T12:35:26.162Z,7.20
2018-03-23T12:37:54.487Z,7.10
2018-03-23T12:40:23.500Z,6.90
2018-03-23T12:42:51.728Z,6.90
2018-03-23T12:45:20.068Z,6.80
2018-03-23T12:47:48.321Z,7.00
2018-03-23T12:50:17.684Z,7.40
2018-03-23T12:52:46.080Z,7.90
2018-03-23T12:55:14.532Z,8.10
2018-03-23T12:57:42.751Z,7.90
2018-03-23T13:00:11.175Z,7.50
2018-03-23T13:02:40.190Z,7.10
2018-03-23T13:05:08.658Z,7.10
2018-03-23T13:07:37.655Z,6.80
2018-03-23T13:10:06.648Z,6.40
2018-03-23T13:12:35.626Z,6.40
2018-03-23T13:15:04.682Z,6.40
2018-03-23T13:17:32.934Z,6.40
2018-03-23T13:20:01.180Z,6.60
2018-03-23T13:22:29.456Z,6.50
2018-03-23T13:24:58.430Z,6.60
2018-03-23T13:27:26.676Z,6.60
2018-03-23T13:29:54.927Z,6.60
2018-03-23T13:32:23.129Z,6.60
2018-03-23T13:34:51.328Z,6.60
2018-03-23T13:37:19.625Z,6.60
2018-03-23T13:39:48.664Z,6.80
2018-03-23T13:44:44.765Z,6.80
2018-03-23T13:47:12.970Z,6.90
2018-03-23T13:49:41.182Z,7.30
2018-03-23T13:52:09.406Z,7.70
2018-03-23T13:54:37.609Z,8.10
2018-03-23T13:57:05.828Z,8.00
2018-03-23T13:59:39.744Z,7.90
2018-03-23T14:02:07.922Z,8.20
2018-03-23T14:04:36.954Z,8.80
2018-03-23T14:07:05.392Z,8.80
2018-03-23T14:09:34.476Z,8.70
2018-03-23T14:12:02.942Z,8.60
2018-03-23T14:14:31.199Z,9.00
2018-03-23T14:16:59.500Z,8.90
2018-03-23T14:19:27.698Z,9.20
2018-03-23T14:21:56.716Z,9.80
2018-03-23T14:24:25.663Z,9.50
2018-03-23T14:26:53.876Z,9.50
2018-03-23T14:29:22.160Z,9.40
2018-03-23T14:31:51.193Z,9.50
2018-03-23T14:34:19.429Z,9.50
2018-03-23T14:36:47.661Z,9.70
2018-03-23T14:39:15.864Z,9.00
2018-03-23T14:41:44.849Z,8.90
2018-03-23T14:44:13.848Z,8.70
2018-03-23T14:46:42.914Z,8.40
2018-03-23T14:49:11.102Z,8.40
2018-03-23T14:54:14.896Z,8.20
2018-03-23T14:56:43.104Z,8.20
2018-03-23T14:59:16.241Z,7.90
2018-03-23T15:01:44.464Z,8.10
2018-03-23T15:04:12.709Z,8.20
2018-03-23T15:06:40.982Z,8.40
2018-03-23T15:09:09.185Z,7.90
2018-03-23T15:11:37.386Z,8.00
2018-03-23T15:14:16.203Z,8.00
2018-03-23T15:16:45.164Z,7.60
2018-03-23T15:19:13.394Z,7.60
2018-03-23T15:21:41.736Z,7.40
2018-03-23T15:24:09.905Z,7.40
2018-03-23T15:26:38.157Z,7.30
2018-03-23T15:29:06.361Z,7.10
2018-03-23T15:31:35.363Z,7.00
2018-03-23T15:34:04.415Z,6.90
2018-03-23T15:36:32.733Z,6.90
2018-03-23T15:39:01.805Z,6.90
2018-03-23T15:41:30.241Z,6.90
2018-03-23T15:43:59.064Z,6.90
2018-03-23T15:46:27.288Z,7.00
2018-03-23T15:48:56.370Z,7.00
2018-03-23T15:51:25.516Z,6.90
2018-03-23T15:53:53.782Z,6.90
2018-03-23T15:56:22.028Z,7.00
2018-03-23T15:58:50.318Z,7.10
2018-03-23T16:01:18.516Z,7.20
2018-03-23T16:03:46.732Z,7.20
2018-03-23T16:06:14.960Z,7.00
2018-03-23T16:08:43.217Z,7.00
2018-03-23T16:11:11.446Z,6.90
2018-03-23T16:13:39.729Z,6.80
2018-03-23T16:16:07.933Z,6.90
2018-03-23T16:18:36.916Z,6.80
2018-03-23T16:21:05.969Z,6.70
2018-03-23T16:23:34.170Z,6.70
2018-03-23T16:26:02.566Z,6.60
2018-03-23T16:28:31.546Z,6.40
2018-03-23T16:30:59.816Z,6.40
2018-03-23T16:33:28.089Z,6.50
2018-03-23T16:35:56.353Z,6.40
2018-03-23T16:38:24.577Z,6.30
2018-03-23T16:40:53.005Z,6.30
2018-03-23T16:43:22.631Z,6.30
2018-03-23T16:45:50.925Z,6.10
2018-03-23T16:48:19.900Z,6.10
2018-03-23T16:50:48.179Z,6.10
2018-03-23T16:53:16.414Z,6.10
2018-03-23T16:55:44.617Z,6.00
2018-03-23T16:58:12.993Z,6.00
2018-03-23T17:00:42.090Z,5.90
2018-03-23T17:03:10.348Z,5.90
2018-03-23T17:05:38.776Z,5.90
2018-03-23T17:08:08.317Z,5.80
2018-03-23T17:10:36.721Z,5.90
2018-03-23T17:13:05.750Z,5.80
2018-03-23T17:15:34.007Z,5.80
2018-03-23T17:18:02.316Z,5.80
2018-03-23T17:20:30.540Z,5.80
2018-03-23T17:22:58.870Z,5.70
2018-03-23T17:25:27.079Z,5.70
2018-03-23T17:27:55.353Z,5.70
2018-03-23T17:30:23.731Z,5.60
2018-03-23T17:32:51.954Z,5.60
2018-03-23T17:35:20.180Z,5.60
2018-03-23T17:37:48.411Z,5.50
2018-03-23T17:40:16.617Z,5.50
2018-03-23T17:42:45.704Z,5.50
2018-03-23T17:45:14.836Z,5.50
2018-03-23T17:47:43.060Z,5.40
2018-03-23T17:50:11.375Z,5.50
2018-03-23T17:52:39.713Z,5.40
2018-03-23T17:55:07.931Z,5.50
2018-03-23T17:57:36.468Z,5.40
2018-03-23T18:00:05.701Z,5.40
2018-03-23T18:02:34.167Z,5.40
2018-03-23T18:05:03.362Z,5.40
2018-03-23T18:07:32.388Z,5.30
2018-03-23T18:10:00.891Z,5.30
2018-03-23T18:12:29.149Z,5.30
2018-03-23T18:14:57.399Z,5.30
2018-03-23T18:17:26.376Z,5.20
2018-03-23T18:19:54.654Z,5.20
2018-03-23T18:22:23.042Z,5.20
2018-03-23T18:25:00.104Z,5.20
2018-03-23T18:27:28.849Z,5.20
2018-03-23T18:29:57.910Z,5.20
2018-03-23T18:32:27.868Z,5.20
2018-03-23T18:34:56.790Z,5.10
2018-03-23T18:37:25.029Z,5.10
2018-03-23T18:39:53.865Z,5.10
2018-03-23T18:42:22.953Z,5.10
2018-03-23T18:44:51.253Z,5.00
2018-03-23T18:47:20.413Z,5.00
2018-03-23T18:49:48.640Z,5.00
2018-03-23T18:52:16.849Z,5.00
2018-03-23T18:54:45.105Z,5.00
2018-03-23T18:57:13.316Z,5.00
2018-03-23T18:59:41.542Z,5.00
2018-03-23T19:02:09.780Z,4.90
2018-03-23T19:04:38.009Z,4.90
2018-03-23T19:07:06.267Z,4.90
2018-03-23T19:09:34.509Z,4.90
2018-03-23T19:12:02.896Z,5.00
2018-03-23T19:14:31.090Z,5.00
2018-03-23T19:17:00.101Z,4.90
2018-03-23T19:19:28.326Z,4.90
2018-03-23T19:21:56.542Z,4.90
2018-03-23T19:24:25.540Z,4.90
2018-03-23T19:26:53.793Z,4.90
2018-03-23T19:29:22.798Z,4.90
2018-03-23T19:31:51.854Z,4.90
2018-03-23T19:34:20.061Z,4.80
2018-03-23T19:36:49.044Z,4.80
2018-03-23T19:39:18.134Z,4.80
2018-03-23T19:41:46.338Z,4.80
2018-03-23T19:44:14.547Z,4.80
2018-03-23T19:46:42.813Z,4.90
2018-03-23T19:49:11.068Z,4.90
2018-03-23T19:51:40.254Z,4.90
2018-03-23T19:54:08.437Z,4.90
2018-03-23T19:56:36.715Z,5.00
2018-03-23T19:59:05.870Z,5.20
2018-03-23T20:01:34.195Z,5.20
2018-03-23T20:04:02.413Z,5.00
2018-03-23T20:06:30.632Z,4.90
2018-03-23T20:08:59.653Z,5.00
2018-03-23T20:11:27.996Z,5.00
2018-03-23T20:14:02.719Z,5.10
2018-03-23T20:16:31.725Z,5.10
2018-03-23T20:19:00.716Z,5.10
2018-03-23T20:21:29.946Z,5.10
2018-03-23T20:24:03.753Z,5.10
2018-03-23T20:26:31.980Z,4.90
2018-03-23T20:29:00.325Z,4.80
2018-03-23T20:31:34.136Z,4.70
2018-03-23T20:34:02.399Z,4.70
2018-03-23T20:36:30.637Z,4.60
2018-03-23T20:38:59.232Z,4.50
2018-03-23T20:41:28.305Z,4.40
2018-03-23T20:43:57.303Z,4.40
2018-03-23T20:46:26.504Z,4.40
2018-03-23T20:48:55.498Z,4.40
2018-03-23T20:51:23.715Z,4.30
2018-03-23T20:53:51.972Z,4.40
2018-03-23T20:56:20.243Z,4.40
2018-03-23T20:58:49.326Z,4.40
2018-03-23T21:01:17.605Z,4.40
2018-03-23T21:03:45.914Z,4.40
2018-03-23T21:06:14.932Z,4.40
2018-03-23T21:08:43.237Z,4.40
2018-03-23T21:11:12.287Z,4.40
2018-03-23T21:13:40.508Z,4.40
2018-03-23T21:16:09.557Z,4.50
2018-03-23T21:18:37.777Z,4.40
2018-03-23T21:21:06.819Z,4.40
2018-03-23T21:23:35.221Z,4.40
2018-03-23T21:26:03.501Z,4.40
2018-03-23T21:28:31.741Z,4.40
2018-03-23T21:30:59.971Z,4.50
2018-03-23T21:33:28.951Z,4.40
2018-03-23T21:35:57.221Z,4.40
2018-03-23T21:38:25.725Z,4.40
2018-03-23T21:40:55.065Z,4.30
2018-03-23T21:43:24.272Z,4.40
2018-03-23T21:45:53.307Z,4.50
2018-03-23T21:48:21.519Z,4.40
2018-03-23T21:50:49.756Z,4.40
2018-03-23T21:53:18.013Z,4.40
2018-03-23T21:55:46.215Z,4.30
2018-03-23T21:58:15.189Z,4.30
2018-03-23T22:00:43.460Z,4.20
2018-03-23T22:03:11.651Z,4.20
2018-03-23T22:05:40.642Z,4.10
2018-03-23T22:08:09.064Z,4.10
2018-03-23T22:10:37.271Z,4.10
2018-03-23T22:13:05.470Z,4.10
2018-03-23T22:15:33.818Z,4.10
2018-03-23T22:18:02.212Z,3.90
2018-03-23T22:20:30.401Z,3.90
2018-03-23T22:22:58.709Z,4.00
2018-03-23T22:25:26.916Z,3.90
2018-03-23T22:27:55.310Z,4.00
2018-03-23T22:30:23.537Z,4.00
2018-03-23T22:32:51.836Z,4.00
2018-03-23T22:35:20.030Z,4.00
2018-03-23T22:37:48.284Z,4.10
2018-03-23T22:40:16.480Z,4.10
2018-03-23T22:42:44.704Z,4.00
2018-03-23T22:45:13.712Z,3.90
2018-03-23T22:47:42.665Z,4.00
2018-03-23T22:50:10.865Z,4.00
2018-03-23T22:52:39.988Z,4.00
2018-03-23T22:55:09.310Z,4.10
2018-03-23T22:57:38.533Z,4.00
2018-03-23T23:00:06.761Z,4.00
2018-03-23T23:02:34.961Z,4.10
2018-03-23T23:05:03.200Z,4.00
2018-03-23T23:07:31.427Z,4.00
2018-03-23T23:09:59.624Z,4.00
2018-03-23T23:12:27.827Z,4.00
2018-03-23T23:14:56.946Z,4.00
2018-03-23T23:17:26.040Z,4.00
2018-03-23T23:19:54.345Z,4.00
2018-03-23T23:22:22.704Z,3.90
2018-03-23T23:24:50.899Z,3.80
2018-03-23T23:27:19.117Z,3.80
2018-03-23T23:29:48.103Z,3.70
2018-03-23T23:32:16.334Z,3.70
2018-03-23T23:34:44.536Z,3.80
2018-03-23T23:37:12.785Z,3.80
2018-03-23T23:39:41.080Z,3.80
2018-03-23T23:42:09.320Z,3.80
2018-03-23T23:44:37.557Z,3.80
2018-03-23T23:47:06.595Z,3.70
2018-03-23T23:49:34.778Z,3.70
2018-03-23T23:52:03.026Z,3.70
2018-03-23T23:54:31.270Z,3.60
2018-03-23T23:56:59.585Z,3.60
2018-03-23T23:59:27.844Z,3.60
